createdAt,value
2022-12-03T00:00:41.922Z,10.93
2022-12-03T00:03:11.666Z,12.73
2022-12-03T00:05:48.365Z,11.40
2022-12-03T00:08:17.615Z,11.77
2022-12-03T00:10:46.198Z,9.67
2022-12-03T00:13:14.418Z,16.07
2022-12-03T00:15:42.657Z,11.30
2022-12-03T00:18:12.266Z,10.63
2022-12-03T00:20:40.569Z,13.10
2022-12-03T00:23:08.819Z,12.60
2022-12-03T00:25:37.176Z,12.87
2022-12-03T00:28:05.616Z,14.23
2022-12-03T00:30:33.789Z,12.23
2022-12-03T00:33:02.050Z,8.93
2022-12-03T00:35:31.606Z,10.03
2022-12-03T00:37:59.905Z,12.03
2022-12-03T00:40:28.078Z,9.97
2022-12-03T00:42:56.579Z,11.23
2022-12-03T00:45:24.753Z,11.53
2022-12-03T00:47:52.951Z,11.87
2022-12-03T00:50:21.293Z,12.00
2022-12-03T00:52:50.898Z,12.77
2022-12-03T00:55:19.429Z,12.27
2022-12-03T00:57:47.652Z,9.93
2022-12-03T01:00:16.862Z,9.57
2022-12-03T01:02:45.055Z,9.73
2022-12-03T01:05:13.278Z,9.73
2022-12-03T01:07:41.715Z,12.47
2022-12-03T01:10:12.438Z,8.83
2022-12-03T01:12:41.466Z,11.53
2022-12-03T01:15:10.659Z,10.77
2022-12-03T01:17:38.937Z,10.40
2022-12-03T01:20:09.376Z,12.63
2022-12-03T01:22:37.669Z,11.70
2022-12-03T01:25:06.523Z,11.73
2022-12-03T01:27:36.161Z,11.63
2022-12-03T01:30:04.636Z,10.90
2022-12-03T01:32:31.897Z,14.63
2022-12-03T01:35:00.221Z,11.80
2022-12-03T01:37:28.645Z,10.73
2022-12-03T01:39:57.021Z,11.03
2022-12-03T01:42:27.552Z,11.97
2022-12-03T01:44:59.576Z,12.97
2022-12-03T01:47:31.250Z,12.47
2022-12-03T01:52:33.703Z,9.07
2022-12-03T01:55:06.134Z,9.87
2022-12-03T01:57:41.145Z,10.50
2022-12-03T02:00:15.257Z,11.60
2022-12-03T02:02:43.559Z,10.83
2022-12-03T02:05:19.001Z,10.70
2022-12-03T02:07:47.494Z,12.00
2022-12-03T02:10:18.205Z,9.70
2022-12-03T02:12:52.384Z,12.13
2022-12-03T02:15:22.152Z,12.80
2022-12-03T02:17:50.532Z,9.77
2022-12-03T02:20:19.189Z,9.33
2022-12-03T02:22:55.588Z,11.27
2022-12-03T02:25:27.215Z,8.80
2022-12-03T02:27:56.524Z,11.18
2022-12-03T02:30:27.276Z,9.40
2022-12-03T02:32:56.519Z,11.40
2022-12-03T02:35:26.639Z,12.63
2022-12-03T02:38:00.467Z,12.60
2022-12-03T02:40:33.289Z,9.13
2022-12-03T02:43:03.331Z,12.60
2022-12-03T02:45:34.975Z,12.83
2022-12-03T02:50:35.666Z,8.43
2022-12-03T02:53:06.875Z,9.48
2022-12-03T02:55:38.016Z,9.90
2022-12-03T02:58:06.687Z,8.23
2022-12-03T03:00:36.705Z,11.20
2022-12-03T03:03:07.395Z,13.17
2022-12-03T03:05:37.484Z,8.37
2022-12-03T03:08:06.653Z,9.70
2022-12-03T03:10:39.115Z,9.27
2022-12-03T03:13:10.700Z,8.83
2022-12-03T03:15:39.451Z,11.02
2022-12-03T03:18:09.329Z,8.77
2022-12-03T03:20:37.819Z,9.17
2022-12-03T03:23:17.666Z,9.37
2022-12-03T03:25:50.253Z,11.70
2022-12-03T03:28:19.140Z,8.17
2022-12-03T03:30:48.047Z,9.90
2022-12-03T03:33:17.336Z,10.83
2022-12-03T03:35:47.337Z,7.97
2022-12-03T03:38:15.979Z,8.87
2022-12-03T03:40:44.721Z,10.43
2022-12-03T03:43:14.992Z,9.93
2022-12-03T03:45:44.168Z,9.50
2022-12-03T03:48:13.465Z,10.43
2022-12-03T03:50:42.299Z,11.40
2022-12-03T03:53:11.387Z,9.43
2022-12-03T03:55:40.469Z,11.33
2022-12-03T03:58:08.898Z,9.30
2022-12-03T04:00:38.722Z,11.63
2022-12-03T04:03:07.561Z,8.60
2022-12-03T04:05:35.773Z,9.40
2022-12-03T04:08:04.025Z,12.27
2022-12-03T04:10:49.546Z,8.57
2022-12-03T04:13:17.969Z,8.77
2022-12-03T04:15:47.875Z,8.13
2022-12-03T04:18:33.885Z,10.43
2022-12-03T04:21:16.069Z,12.63
2022-12-03T04:23:44.307Z,8.23
2022-12-03T04:26:29.762Z,9.83
2022-12-03T04:28:58.155Z,11.17
2022-12-03T04:32:00.279Z,6.97
2022-12-03T04:34:45.661Z,10.57
2022-12-03T04:37:13.956Z,9.33
2022-12-03T04:39:42.178Z,18.47
2022-12-03T04:42:10.439Z,112.60
2022-12-03T04:44:39.070Z,32.30
2022-12-03T04:47:11.066Z,15.57
2022-12-03T04:49:40.801Z,13.10
2022-12-03T04:52:09.814Z,13.50
2022-12-03T04:54:38.409Z,18.37
2022-12-03T04:57:07.164Z,17.53
2022-12-03T04:59:36.014Z,10.60
2022-12-03T05:02:04.533Z,10.40
2022-12-03T05:04:34.241Z,7.93
2022-12-03T05:07:02.481Z,8.63
2022-12-03T05:09:30.699Z,13.17
2022-12-03T05:11:58.899Z,10.87
2022-12-03T05:14:27.123Z,11.23
2022-12-03T05:16:55.386Z,11.40
2022-12-03T05:19:44.410Z,12.00
2022-12-03T05:22:13.002Z,13.33
2022-12-03T05:24:41.216Z,10.47
2022-12-03T05:27:09.416Z,9.20
2022-12-03T05:29:37.594Z,9.27
2022-12-03T05:32:06.034Z,9.57
2022-12-03T05:34:34.248Z,11.87
2022-12-03T05:37:02.570Z,10.80
2022-12-03T05:39:32.290Z,10.23
2022-12-03T05:42:17.886Z,10.10
2022-12-03T05:44:46.092Z,9.60
2022-12-03T05:47:14.311Z,8.20
2022-12-03T05:49:42.532Z,11.63
2022-12-03T05:52:10.722Z,9.13
2022-12-03T05:54:40.492Z,8.50
2022-12-03T05:57:08.799Z,7.00
2022-12-03T05:59:36.985Z,9.70
2022-12-03T06:02:05.224Z,7.90
2022-12-03T06:04:33.456Z,11.80
2022-12-03T06:07:01.621Z,8.20
2022-12-03T06:09:30.112Z,10.67
2022-12-03T06:11:59.703Z,7.90
2022-12-03T06:14:30.187Z,6.73
2022-12-03T06:16:58.385Z,9.83
2022-12-03T06:19:26.608Z,10.53
2022-12-03T06:21:55.515Z,8.73
2022-12-03T06:24:23.723Z,10.43
2022-12-03T06:26:51.925Z,8.63
2022-12-03T06:29:21.583Z,9.83
2022-12-03T06:31:49.804Z,10.57
2022-12-03T06:34:18.046Z,11.10
2022-12-03T06:36:46.896Z,11.33
2022-12-03T06:39:15.193Z,13.07
2022-12-03T06:41:43.370Z,10.63
2022-12-03T06:44:11.564Z,8.33
2022-12-03T06:46:41.276Z,11.47
2022-12-03T06:49:10.126Z,11.20
2022-12-03T06:51:38.947Z,11.20
2022-12-03T06:54:07.463Z,11.33
2022-12-03T06:56:41.859Z,12.17
2022-12-03T06:59:12.979Z,12.83
2022-12-03T07:01:42.858Z,11.93
2022-12-03T07:04:11.136Z,9.73
2022-12-03T07:06:39.411Z,11.30
2022-12-03T07:09:08.148Z,10.80
2022-12-03T07:11:40.800Z,11.33
2022-12-03T07:14:11.295Z,9.03
2022-12-03T07:16:40.204Z,11.03
2022-12-03T07:19:10.583Z,11.47
2022-12-03T07:21:39.075Z,11.00
2022-12-03T07:24:08.118Z,10.03
2022-12-03T07:26:36.345Z,11.43
2022-12-03T07:29:04.871Z,8.83
2022-12-03T07:31:33.422Z,9.20
2022-12-03T07:34:01.684Z,8.23
2022-12-03T07:36:31.342Z,11.00
2022-12-03T07:38:59.560Z,11.97
2022-12-03T07:41:27.776Z,7.83
2022-12-03T07:43:55.994Z,12.13
2022-12-03T07:46:24.210Z,10.17
2022-12-03T07:48:52.491Z,9.43
2022-12-03T07:51:20.759Z,10.40
2022-12-03T07:53:50.403Z,8.17
2022-12-03T07:56:18.605Z,8.70
2022-12-03T07:58:46.883Z,10.60
2022-12-03T08:01:15.264Z,9.17
2022-12-03T08:03:44.011Z,11.30
2022-12-03T08:06:12.283Z,8.83
2022-12-03T08:08:40.566Z,10.67
2022-12-03T08:11:13.940Z,10.00
2022-12-03T08:13:42.252Z,12.67
2022-12-03T08:16:17.802Z,10.73
2022-12-03T08:18:47.763Z,11.80
2022-12-03T08:21:22.644Z,12.57
2022-12-03T08:23:50.947Z,10.10
2022-12-03T08:26:25.016Z,14.13
2022-12-03T08:28:53.937Z,11.90
2022-12-03T08:31:32.306Z,10.83
2022-12-03T08:34:16.407Z,10.40
2022-12-03T08:36:45.012Z,12.03
2022-12-03T08:39:30.299Z,12.67
2022-12-03T08:42:27.795Z,13.40
2022-12-03T08:44:56.628Z,12.23
2022-12-03T08:47:26.547Z,11.00
2022-12-03T08:49:58.239Z,12.90
2022-12-03T08:52:32.848Z,12.70
2022-12-03T08:55:11.870Z,11.20
2022-12-03T08:57:44.123Z,10.17
2022-12-03T09:00:19.862Z,10.40
2022-12-03T09:02:51.078Z,10.60
2022-12-03T09:05:22.455Z,7.57
2022-12-03T09:07:50.799Z,8.73
2022-12-03T09:10:19.208Z,10.47
2022-12-03T09:12:48.998Z,9.80
2022-12-03T09:15:17.381Z,9.63
2022-12-03T09:17:45.633Z,12.37
2022-12-03T09:20:14.245Z,10.47
2022-12-03T09:22:42.475Z,11.57
2022-12-03T09:25:11.146Z,11.67
2022-12-03T09:27:39.424Z,12.50
2022-12-03T09:30:10.144Z,9.90
2022-12-03T09:32:38.320Z,14.83
2022-12-03T09:35:07.487Z,15.82
2022-12-03T09:37:35.684Z,11.45
2022-12-03T09:40:04.307Z,15.02
2022-12-03T09:42:32.584Z,12.40
2022-12-03T09:45:01.134Z,16.13
2022-12-03T09:47:31.959Z,15.18
2022-12-03T09:50:00.403Z,14.23
2022-12-03T09:52:33.956Z,13.75
2022-12-03T09:55:06.675Z,12.30
2022-12-03T09:57:35.011Z,16.08
2022-12-03T10:00:03.256Z,13.05
2022-12-03T10:02:34.359Z,13.45
2022-12-03T10:05:02.623Z,15.45
2022-12-03T10:07:31.010Z,14.10
2022-12-03T10:09:59.284Z,12.27
2022-12-03T10:12:27.558Z,15.18
2022-12-03T10:14:56.625Z,15.00
2022-12-03T10:17:25.015Z,15.43
2022-12-03T10:19:54.839Z,16.15
2022-12-03T10:22:23.281Z,12.80
2022-12-03T10:25:07.804Z,12.45
2022-12-03T10:27:36.126Z,11.38
2022-12-03T10:30:07.487Z,13.25
2022-12-03T10:32:42.432Z,11.70
2022-12-03T10:35:14.815Z,13.05
2022-12-03T10:38:00.188Z,17.25
2022-12-03T10:40:30.495Z,14.00
2022-12-03T10:43:14.771Z,12.40
2022-12-03T10:45:43.680Z,13.10
2022-12-03T10:48:16.874Z,12.68
2022-12-03T10:50:51.983Z,11.70
2022-12-03T10:53:21.860Z,14.20
2022-12-03T10:55:52.544Z,11.23
2022-12-03T10:58:24.493Z,13.32
2022-12-03T11:00:54.208Z,12.45
2022-12-03T11:03:25.358Z,13.90
2022-12-03T11:05:56.487Z,12.32
2022-12-03T11:08:26.874Z,12.93
2022-12-03T11:10:59.911Z,13.88
2022-12-03T11:13:30.618Z,13.13
2022-12-03T11:16:00.356Z,16.40
2022-12-03T11:18:59.340Z,16.17
2022-12-03T11:21:29.015Z,17.85
2022-12-03T11:24:21.717Z,12.25
2022-12-03T11:27:21.332Z,14.95
2022-12-03T11:29:56.507Z,17.27
2022-12-03T11:33:09.798Z,14.68
2022-12-03T11:36:08.014Z,13.90
2022-12-03T11:38:57.806Z,14.23
2022-12-03T11:41:34.134Z,16.92
2022-12-03T11:44:30.840Z,12.88
2022-12-03T11:47:02.071Z,21.40
2022-12-03T11:49:39.542Z,13.18
2022-12-03T11:52:25.259Z,15.63
2022-12-03T11:54:58.707Z,14.85
2022-12-03T11:57:31.632Z,18.13
2022-12-03T12:00:17.837Z,16.50
2022-12-03T12:02:46.336Z,17.50
2022-12-03T12:05:30.496Z,16.42
2022-12-03T12:07:58.778Z,17.08
2022-12-03T12:10:53.865Z,17.48
2022-12-03T12:13:54.406Z,16.73
2022-12-03T12:16:43.657Z,15.57
2022-12-03T12:19:36.932Z,14.63
2022-12-03T12:22:20.634Z,17.80
2022-12-03T12:24:52.252Z,14.48
2022-12-03T12:27:23.712Z,14.27
2022-12-03T12:29:57.403Z,12.82
2022-12-03T12:32:28.591Z,16.42
2022-12-03T12:35:00.486Z,12.27
2022-12-03T12:37:34.164Z,15.98
2022-12-03T12:40:05.473Z,14.43
2022-12-03T12:42:37.281Z,13.07
2022-12-03T12:47:50.381Z,9.77
2022-12-03T12:50:20.422Z,13.25
2022-12-03T12:52:55.099Z,12.20
2022-12-03T12:55:25.168Z,15.10
2022-12-03T12:57:57.309Z,14.35
2022-12-03T13:00:25.574Z,13.70
2022-12-03T13:02:57.868Z,14.35
2022-12-03T13:05:27.820Z,12.50
2022-12-03T13:07:56.987Z,12.60
2022-12-03T13:10:42.066Z,12.60
2022-12-03T13:13:23.272Z,13.63
2022-12-03T13:16:06.717Z,12.55
2022-12-03T13:18:41.585Z,11.25
2022-12-03T13:21:24.529Z,14.13
2022-12-03T13:23:55.476Z,11.65
2022-12-03T13:26:38.671Z,13.90
2022-12-03T13:29:17.041Z,12.40
2022-12-03T13:31:51.635Z,13.32
2022-12-03T13:34:22.888Z,11.73
2022-12-03T13:36:57.701Z,11.88
2022-12-03T13:39:32.261Z,11.40
2022-12-03T13:42:31.268Z,13.55
2022-12-03T13:45:02.979Z,12.98
2022-12-03T13:50:05.212Z,11.73
2022-12-03T13:52:36.468Z,15.52
2022-12-03T13:55:05.540Z,19.90
2022-12-03T13:57:35.114Z,27.38
2022-12-03T14:00:06.335Z,18.70
2022-12-03T14:02:34.615Z,15.85
2022-12-03T14:05:03.251Z,17.23
2022-12-03T14:07:31.463Z,15.82
2022-12-03T14:10:00.010Z,13.75
2022-12-03T14:12:33.681Z,14.40
2022-12-03T14:15:02.789Z,13.27
2022-12-03T14:17:32.692Z,14.40
2022-12-03T14:20:01.863Z,14.80
2022-12-03T14:22:30.781Z,17.20
2022-12-03T14:24:59.067Z,16.63
2022-12-03T14:27:29.015Z,20.42
2022-12-03T14:29:59.740Z,15.50
2022-12-03T14:32:28.431Z,15.90
2022-12-03T14:34:58.027Z,14.13
2022-12-03T14:37:26.325Z,16.58
2022-12-03T14:39:54.785Z,15.27
2022-12-03T14:42:23.265Z,18.85
2022-12-03T14:44:53.037Z,13.32
2022-12-03T14:47:23.582Z,13.93
2022-12-03T14:49:53.002Z,14.95
2022-12-03T14:52:22.952Z,17.10
2022-12-03T14:54:51.141Z,15.90
2022-12-03T14:57:19.482Z,20.13
2022-12-03T14:59:48.202Z,23.27
2022-12-03T15:02:16.450Z,18.33
2022-12-03T15:04:44.714Z,20.75
2022-12-03T15:07:12.896Z,17.27
2022-12-03T15:09:42.519Z,18.60
2022-12-03T15:12:11.081Z,17.33
2022-12-03T15:14:39.308Z,19.95
2022-12-03T15:17:07.662Z,21.35
2022-12-03T15:19:36.402Z,18.43
2022-12-03T15:22:04.777Z,21.17
2022-12-03T15:24:33.051Z,17.90
2022-12-03T15:27:03.175Z,18.47
2022-12-03T15:29:32.874Z,18.23
2022-12-03T15:32:03.149Z,21.70
2022-12-03T15:34:31.355Z,19.97
2022-12-03T15:36:59.523Z,15.43
2022-12-03T15:39:27.957Z,20.63
2022-12-03T15:41:56.136Z,17.75
2022-12-03T15:44:25.788Z,16.92
2022-12-03T15:46:53.971Z,18.75
2022-12-03T15:49:22.156Z,16.73
2022-12-03T15:51:50.369Z,20.30
2022-12-03T15:54:18.648Z,20.00
2022-12-03T15:56:46.852Z,18.35
2022-12-03T15:59:15.044Z,17.50
2022-12-03T16:01:44.648Z,19.30
2022-12-03T16:04:12.887Z,19.05
2022-12-03T16:06:41.155Z,20.03
2022-12-03T16:09:09.352Z,19.58
2022-12-03T16:11:37.548Z,18.20
2022-12-03T16:14:05.988Z,16.07
2022-12-03T16:16:34.236Z,19.38
2022-12-03T16:19:03.971Z,19.33
2022-12-03T16:21:32.184Z,21.85
2022-12-03T16:24:00.642Z,21.00
2022-12-03T16:26:28.925Z,22.08
2022-12-03T16:28:57.234Z,23.02
2022-12-03T16:31:25.543Z,21.63
2022-12-03T16:33:54.800Z,19.98
2022-12-03T16:36:24.471Z,20.45
2022-12-03T16:38:52.662Z,23.00
2022-12-03T16:41:22.422Z,26.43
2022-12-03T16:43:50.716Z,23.73
2022-12-03T16:46:25.737Z,22.20
2022-12-03T16:48:55.310Z,21.17
2022-12-03T16:51:25.231Z,24.50
2022-12-03T16:53:53.812Z,24.53
2022-12-03T16:56:22.141Z,21.57
2022-12-03T16:58:50.336Z,19.53
2022-12-03T17:01:18.707Z,21.23
2022-12-03T17:03:47.092Z,24.52
2022-12-03T17:06:15.275Z,20.00
2022-12-03T17:08:49.430Z,18.00
2022-12-03T17:11:18.713Z,23.03
2022-12-03T17:13:47.131Z,17.43
2022-12-03T17:16:15.479Z,19.57
2022-12-03T17:18:43.968Z,17.40
2022-12-03T17:21:12.227Z,21.87
2022-12-03T17:23:40.467Z,15.20
2022-12-03T17:26:10.183Z,17.35
2022-12-03T17:28:38.408Z,22.07
2022-12-03T17:31:06.883Z,27.80
2022-12-03T17:33:35.156Z,35.47
2022-12-03T17:36:03.331Z,34.73
2022-12-03T17:38:37.365Z,27.53
2022-12-03T17:41:07.466Z,23.87
2022-12-03T17:43:37.068Z,17.40
2022-12-03T17:46:06.693Z,18.10
2022-12-03T17:48:35.138Z,21.87
2022-12-03T17:51:03.445Z,16.77
2022-12-03T17:53:31.674Z,22.93
2022-12-03T17:55:59.911Z,22.43
2022-12-03T17:58:28.633Z,20.07
2022-12-03T18:01:02.464Z,19.10
2022-12-03T18:03:31.656Z,14.27
2022-12-03T18:05:59.982Z,19.47
2022-12-03T18:08:28.155Z,18.87
2022-12-03T18:10:56.369Z,21.97
2022-12-03T18:13:24.599Z,21.10
2022-12-03T18:15:52.884Z,18.03
2022-12-03T18:18:22.483Z,17.77
2022-12-03T18:20:50.792Z,19.27
2022-12-03T18:23:19.004Z,18.30
2022-12-03T18:25:47.187Z,18.47
2022-12-03T18:28:15.378Z,19.87
2022-12-03T18:30:49.179Z,18.30
2022-12-03T18:33:21.399Z,23.50
2022-12-03T18:35:54.311Z,21.33
2022-12-03T18:38:23.783Z,22.77
2022-12-03T18:40:54.388Z,29.07
2022-12-03T18:43:22.554Z,23.10
2022-12-03T18:45:50.766Z,21.47
2022-12-03T18:48:20.489Z,23.77
2022-12-03T18:50:50.102Z,29.60
2022-12-03T18:53:20.251Z,24.30
2022-12-03T18:55:49.446Z,22.37
2022-12-03T18:58:17.654Z,25.37
2022-12-03T19:00:45.910Z,29.37
2022-12-03T19:03:14.254Z,28.73
2022-12-03T19:05:42.571Z,26.93
2022-12-03T19:08:15.055Z,22.20
2022-12-03T19:10:44.271Z,29.50
2022-12-03T19:13:12.821Z,27.50
2022-12-03T19:15:41.414Z,32.03
2022-12-03T19:18:09.566Z,28.07
2022-12-03T19:20:41.322Z,27.63
2022-12-03T19:25:38.891Z,30.00
2022-12-03T19:28:07.159Z,25.10
2022-12-03T19:30:35.357Z,29.77
2022-12-03T19:33:03.560Z,25.23
2022-12-03T19:35:32.702Z,23.63
2022-12-03T19:38:00.903Z,26.10
2022-12-03T19:40:29.116Z,28.47
2022-12-03T19:42:58.676Z,33.93
2022-12-03T19:45:26.928Z,28.60
2022-12-03T19:47:55.168Z,35.70
2022-12-03T19:50:23.844Z,28.73
2022-12-03T19:52:52.308Z,32.17
2022-12-03T19:55:20.689Z,25.83
2022-12-03T19:57:48.948Z,28.93
2022-12-03T20:00:19.215Z,26.83
2022-12-03T20:02:50.867Z,24.77
2022-12-03T20:07:47.090Z,23.63
2022-12-03T20:10:15.535Z,28.63
2022-12-03T20:12:43.717Z,20.87
2022-12-03T20:15:13.171Z,26.23
2022-12-03T20:17:42.740Z,22.23
2022-12-03T20:20:11.730Z,26.30
2022-12-03T20:22:40.032Z,26.37
2022-12-03T20:25:08.983Z,25.07
2022-12-03T20:27:37.161Z,24.97
2022-12-03T20:30:06.436Z,22.67
2022-12-03T20:32:39.394Z,20.83
2022-12-03T20:35:13.328Z,22.43
2022-12-03T20:37:41.635Z,20.83
2022-12-03T20:40:10.810Z,19.73
2022-12-03T20:42:38.974Z,20.70
2022-12-03T20:45:08.783Z,22.17
2022-12-03T20:47:36.936Z,19.33
2022-12-03T20:50:05.680Z,19.97
2022-12-03T20:52:35.251Z,19.87
2022-12-03T20:55:03.463Z,22.63
2022-12-03T20:57:31.688Z,24.07
2022-12-03T20:59:59.913Z,24.63
2022-12-03T21:02:28.332Z,16.83
2022-12-03T21:04:56.592Z,14.97
2022-12-03T21:07:24.746Z,18.60
2022-12-03T21:09:54.640Z,15.13
2022-12-03T21:12:23.068Z,13.67
2022-12-03T21:14:51.225Z,14.60
2022-12-03T21:17:20.200Z,13.97
2022-12-03T21:19:48.439Z,14.90
2022-12-03T21:22:16.620Z,15.57
2022-12-03T21:24:45.187Z,13.30
2022-12-03T21:27:21.161Z,13.93
2022-12-03T21:29:49.927Z,12.70
2022-12-03T21:32:18.173Z,12.90
2022-12-03T21:34:46.388Z,12.80
2022-12-03T21:37:14.609Z,13.00
2022-12-03T21:39:42.791Z,14.80
2022-12-03T21:42:33.353Z,14.20
2022-12-03T21:45:00.533Z,15.53
2022-12-03T21:47:33.436Z,16.13
2022-12-03T21:50:06.211Z,15.53
2022-12-03T21:52:35.063Z,13.57
2022-12-03T21:55:03.273Z,15.43
2022-12-03T21:57:31.469Z,14.37
2022-12-03T22:00:01.033Z,15.00
2022-12-03T22:02:29.362Z,14.30
2022-12-03T22:04:58.179Z,14.60
2022-12-03T22:07:27.034Z,14.00
2022-12-03T22:09:55.558Z,14.43
2022-12-03T22:12:23.951Z,14.07
2022-12-03T22:14:53.613Z,12.07
2022-12-03T22:17:23.153Z,12.77
2022-12-03T22:19:51.995Z,13.67
2022-12-03T22:22:20.604Z,15.27
2022-12-03T22:24:49.093Z,15.43
2022-12-03T22:27:17.468Z,13.03
2022-12-03T22:29:45.667Z,14.23
2022-12-03T22:32:13.892Z,20.63
2022-12-03T22:34:44.479Z,21.03
2022-12-03T22:37:12.644Z,19.10
2022-12-03T22:39:40.875Z,23.57
2022-12-03T22:42:09.119Z,22.97
2022-12-03T22:44:37.374Z,23.17
2022-12-03T22:47:06.064Z,22.37
2022-12-03T22:49:34.431Z,22.87
2022-12-03T22:52:04.033Z,25.87
2022-12-03T22:54:32.229Z,19.33
2022-12-03T22:57:00.537Z,23.57
2022-12-03T22:59:28.756Z,26.03
2022-12-03T23:01:56.929Z,23.43
2022-12-03T23:04:25.257Z,22.37
2022-12-03T23:06:53.472Z,24.00
2022-12-03T23:09:23.034Z,25.83
2022-12-03T23:11:51.212Z,24.93
2022-12-03T23:14:19.382Z,25.43
2022-12-03T23:16:47.568Z,23.77
2022-12-03T23:19:15.741Z,24.37
2022-12-03T23:21:43.988Z,28.40
2022-12-03T23:24:12.203Z,25.30
2022-12-03T23:26:41.812Z,21.27
2022-12-03T23:29:10.028Z,23.73
2022-12-03T23:31:38.411Z,24.00
2022-12-03T23:34:06.947Z,25.07
2022-12-03T23:36:35.584Z,26.23
2022-12-03T23:39:04.247Z,25.10
2022-12-03T23:41:32.457Z,19.53
2022-12-03T23:44:02.700Z,21.93
2022-12-03T23:46:31.041Z,15.40
2022-12-03T23:49:00.431Z,16.87
2022-12-03T23:51:28.975Z,18.67
2022-12-03T23:53:57.715Z,18.10
2022-12-03T23:56:29.151Z,18.77
2022-12-03T23:58:58.009Z,12.73
